sensor_id;sensor_type;location;lat;lon;timestamp;P1;durP1;ratioP1;P2;durP2;ratioP2
56299;SDS011;42209;6.376;-10.782;2023-03-01T00:04:53;8.57;;;5.15;;
56299;SDS011;42209;6.376;-10.782;2023-03-01T00:12:18;9.43;;;5.25;;
56299;SDS011;42209;6.376;-10.782;2023-03-01T00:17:14;8.98;;;5.80;;
56299;SDS011;42209;6.376;-10.782;2023-03-01T00:19:43;9.85;;;5.85;;
56299;SDS011;42209;6.376;-10.782;2023-03-01T00:24:39;10.23;;;5.18;;
56299;SDS011;42209;6.376;-10.782;2023-03-01T00:29:36;9.00;;;6.03;;
56299;SDS011;42209;6.376;-10.782;2023-03-01T00:34:33;8.43;;;5.30;;
56299;SDS011;42209;6.376;-10.782;2023-03-01T00:37:01;12.48;;;6.15;;
56299;SDS011;42209;6.376;-10.782;2023-03-01T00:46:54;10.75;;;6.00;;
56299;SDS011;42209;6.376;-10.782;2023-03-01T00:49:22;13.05;;;5.70;;
56299;SDS011;42209;6.376;-10.782;2023-03-01T00:54:18;14.05;;;5.82;;
56299;SDS011;42209;6.376;-10.782;2023-03-01T00:59:14;15.02;;;6.47;;
56299;SDS011;42209;6.376;-10.782;2023-03-01T01:04:12;12.85;;;6.28;;
56299;SDS011;42209;6.376;-10.782;2023-03-01T01:06:44;10.20;;;5.82;;
56299;SDS011;42209;6.376;-10.782;2023-03-01T01:09:15;9.30;;;5.47;;
56299;SDS011;42209;6.376;-10.782;2023-03-01T01:11:45;10.20;;;5.35;;
56299;SDS011;42209;6.376;-10.782;2023-03-01T01:14:16;11.40;;;5.75;;
56299;SDS011;42209;6.376;-10.782;2023-03-01T01:16:45;10.32;;;6.05;;
56299;SDS011;42209;6.376;-10.782;2023-03-01T01:19:14;12.20;;;5.90;;
56299;SDS011;42209;6.376;-10.782;2023-03-01T01:21:42;13.23;;;6.55;;
56299;SDS011;42209;6.376;-10.782;2023-03-01T01:24:11;13.80;;;7.22;;
56299;SDS011;42209;6.376;-10.782;2023-03-01T01:26:40;10.63;;;5.47;;
56299;SDS011;42209;6.376;-10.782;2023-03-01T01:29:09;10.43;;;5.72;;
56299;SDS011;42209;6.376;-10.782;2023-03-01T01:31:38;7.90;;;5.25;;
56299;SDS011;42209;6.376;-10.782;2023-03-01T01:34:11;10.25;;;6.55;;
56299;SDS011;42209;6.376;-10.782;2023-03-01T01:36:49;11.02;;;5.57;;
56299;SDS011;42209;6.376;-10.782;2023-03-01T01:39:19;9.65;;;5.28;;
56299;SDS011;42209;6.376;-10.782;2023-03-01T01:41:48;13.50;;;6.30;;
56299;SDS011;42209;6.376;-10.782;2023-03-01T01:44:19;12.75;;;6.60;;
56299;SDS011;42209;6.376;-10.782;2023-03-01T01:49:54;12.05;;;6.25;;
56299;SDS011;42209;6.376;-10.782;2023-03-01T01:52:24;9.55;;;5.63;;
56299;SDS011;42209;6.376;-10.782;2023-03-01T01:55:01;12.90;;;5.75;;
56299;SDS011;42209;6.376;-10.782;2023-03-01T02:02:52;10.60;;;6.38;;
56299;SDS011;42209;6.376;-10.782;2023-03-01T02:08:08;14.00;;;7.70;;
56299;SDS011;42209;6.376;-10.782;2023-03-01T02:10:43;11.50;;;6.40;;
56299;SDS011;42209;6.376;-10.782;2023-03-01T02:13:13;13.88;;;6.95;;
56299;SDS011;42209;6.376;-10.782;2023-03-01T02:15:41;12.20;;;7.28;;
56299;SDS011;42209;6.376;-10.782;2023-03-01T02:18:11;11.25;;;7.07;;
56299;SDS011;42209;6.376;-10.782;2023-03-01T02:23:36;14.68;;;7.25;;
56299;SDS011;42209;6.376;-10.782;2023-03-01T02:28:51;11.57;;;7.47;;
56299;SDS011;42209;6.376;-10.782;2023-03-01T02:31:19;11.85;;;7.22;;
56299;SDS011;42209;6.376;-10.782;2023-03-01T02:33:48;12.73;;;7.28;;
56299;SDS011;42209;6.376;-10.782;2023-03-01T02:36:19;13.48;;;7.50;;
56299;SDS011;42209;6.376;-10.782;2023-03-01T02:38:53;14.07;;;7.07;;
56299;SDS011;42209;6.376;-10.782;2023-03-01T02:41:26;11.05;;;7.07;;
56299;SDS011;42209;6.376;-10.782;2023-03-01T02:43:59;13.18;;;7.40;;
56299;SDS011;42209;6.376;-10.782;2023-03-01T02:46:28;14.98;;;7.03;;
56299;SDS011;42209;6.376;-10.782;2023-03-01T02:48:57;13.32;;;7.60;;
56299;SDS011;42209;6.376;-10.782;2023-03-01T02:54:25;12.77;;;7.18;;
56299;SDS011;42209;6.376;-10.782;2023-03-01T02:56:58;15.57;;;8.68;;
56299;SDS011;42209;6.376;-10.782;2023-03-01T02:59:30;12.13;;;6.97;;
56299;SDS011;42209;6.376;-10.782;2023-03-01T03:02:01;14.50;;;7.43;;
56299;SDS011;42209;6.376;-10.782;2023-03-01T03:04:29;11.85;;;7.00;;
56299;SDS011;42209;6.376;-10.782;2023-03-01T03:09:26;10.95;;;6.25;;
56299;SDS011;42209;6.376;-10.782;2023-03-01T03:11:55;13.68;;;7.95;;
56299;SDS011;42209;6.376;-10.782;2023-03-01T03:14:24;12.50;;;8.50;;
56299;SDS011;42209;6.376;-10.782;2023-03-01T03:16:53;13.27;;;7.75;;
56299;SDS011;42209;6.376;-10.782;2023-03-01T03:19:21;15.00;;;8.32;;
56299;SDS011;42209;6.376;-10.782;2023-03-01T03:21:49;11.48;;;7.38;;
56299;SDS011;42209;6.376;-10.782;2023-03-01T03:26:46;13.45;;;7.80;;
56299;SDS011;42209;6.376;-10.782;2023-03-01T03:31:42;13.48;;;7.95;;
56299;SDS011;42209;6.376;-10.782;2023-03-01T03:36:38;10.88;;;6.97;;
56299;SDS011;42209;6.376;-10.782;2023-03-01T03:39:07;10.23;;;6.70;;
56299;SDS011;42209;6.376;-10.782;2023-03-01T03:44:03;12.52;;;6.97;;
56299;SDS011;42209;6.376;-10.782;2023-03-01T03:49:00;12.05;;;6.75;;
56299;SDS011;42209;6.376;-10.782;2023-03-01T03:51:28;11.60;;;6.35;;
56299;SDS011;42209;6.376;-10.782;2023-03-01T03:53:56;11.00;;;6.72;;
56299;SDS011;42209;6.376;-10.782;2023-03-01T03:58:54;11.68;;;6.97;;
56299;SDS011;42209;6.376;-10.782;2023-03-01T04:03:50;10.98;;;6.43;;
56299;SDS011;42209;6.376;-10.782;2023-03-01T04:06:19;11.15;;;6.47;;
56299;SDS011;42209;6.376;-10.782;2023-03-01T04:08:48;10.45;;;6.60;;
56299;SDS011;42209;6.376;-10.782;2023-03-01T04:11:16;10.25;;;6.93;;
56299;SDS011;42209;6.376;-10.782;2023-03-01T04:13:45;11.60;;;7.20;;
56299;SDS011;42209;6.376;-10.782;2023-03-01T04:18:41;9.35;;;6.05;;
56299;SDS011;42209;6.376;-10.782;2023-03-01T04:21:09;12.38;;;7.03;;
56299;SDS011;42209;6.376;-10.782;2023-03-01T04:28:37;10.13;;;6.30;;
56299;SDS011;42209;6.376;-10.782;2023-03-01T04:31:09;8.63;;;5.88;;
56299;SDS011;42209;6.376;-10.782;2023-03-01T04:33:43;9.13;;;6.28;;
56299;SDS011;42209;6.376;-10.782;2023-03-01T04:36:16;9.32;;;5.82;;
56299;SDS011;42209;6.376;-10.782;2023-03-01T04:38:45;9.27;;;5.57;;
56299;SDS011;42209;6.376;-10.782;2023-03-01T04:43:43;11.88;;;6.65;;
56299;SDS011;42209;6.376;-10.782;2023-03-01T04:46:13;8.55;;;5.60;;
56299;SDS011;42209;6.376;-10.782;2023-03-01T04:48:43;7.65;;;5.25;;
56299;SDS011;42209;6.376;-10.782;2023-03-01T04:51:12;8.02;;;5.35;;
56299;SDS011;42209;6.376;-10.782;2023-03-01T04:53:41;8.50;;;5.45;;
56299;SDS011;42209;6.376;-10.782;2023-03-01T04:56:10;9.35;;;5.88;;
56299;SDS011;42209;6.376;-10.782;2023-03-01T04:58:39;9.43;;;5.43;;
56299;SDS011;42209;6.376;-10.782;2023-03-01T05:03:36;8.32;;;6.45;;
56299;SDS011;42209;6.376;-10.782;2023-03-01T05:06:05;9.60;;;5.80;;
56299;SDS011;42209;6.376;-10.782;2023-03-01T05:08:33;8.60;;;5.50;;
56299;SDS011;42209;6.376;-10.782;2023-03-01T05:11:01;8.20;;;5.47;;
56299;SDS011;42209;6.376;-10.782;2023-03-01T05:15:59;9.73;;;5.45;;
56299;SDS011;42209;6.376;-10.782;2023-03-01T05:18:31;7.55;;;5.20;;
56299;SDS011;42209;6.376;-10.782;2023-03-01T05:21:02;8.02;;;5.30;;
56299;SDS011;42209;6.376;-10.782;2023-03-01T05:23:38;6.40;;;4.57;;
56299;SDS011;42209;6.376;-10.782;2023-03-01T05:26:06;8.60;;;5.75;;
56299;SDS011;42209;6.376;-10.782;2023-03-01T05:28:51;6.43;;;4.68;;
56299;SDS011;42209;6.376;-10.782;2023-03-01T05:31:20;7.80;;;5.03;;
56299;SDS011;42209;6.376;-10.782;2023-03-01T05:33:49;7.07;;;5.20;;
56299;SDS011;42209;6.376;-10.782;2023-03-01T05:36:17;7.95;;;5.47;;
56299;SDS011;42209;6.376;-10.782;2023-03-01T05:41:14;7.47;;;5.15;;
56299;SDS011;42209;6.376;-10.782;2023-03-01T05:43:43;8.85;;;5.70;;
56299;SDS011;42209;6.376;-10.782;2023-03-01T05:46:12;6.00;;;4.15;;
56299;SDS011;42209;6.376;-10.782;2023-03-01T05:48:40;10.02;;;5.60;;
56299;SDS011;42209;6.376;-10.782;2023-03-01T05:56:05;7.55;;;4.88;;
56299;SDS011;42209;6.376;-10.782;2023-03-01T05:58:33;9.32;;;5.07;;
56299;SDS011;42209;6.376;-10.782;2023-03-01T06:03:33;10.38;;;5.00;;
56299;SDS011;42209;6.376;-10.782;2023-03-01T06:06:01;8.93;;;4.72;;
56299;SDS011;42209;6.376;-10.782;2023-03-01T06:08:30;8.98;;;5.32;;
56299;SDS011;42209;6.376;-10.782;2023-03-01T06:10:58;9.00;;;5.45;;
56299;SDS011;42209;6.376;-10.782;2023-03-01T06:13:26;7.65;;;4.47;;
56299;SDS011;42209;6.376;-10.782;2023-03-01T06:15:54;7.60;;;4.90;;
56299;SDS011;42209;6.376;-10.782;2023-03-01T06:20:54;8.23;;;5.22;;
56299;SDS011;42209;6.376;-10.782;2023-03-01T06:23:24;9.25;;;4.60;;
56299;SDS011;42209;6.376;-10.782;2023-03-01T06:25:52;6.65;;;4.50;;
56299;SDS011;42209;6.376;-10.782;2023-03-01T06:30:49;6.97;;;4.75;;
56299;SDS011;42209;6.376;-10.782;2023-03-01T06:33:18;8.25;;;4.57;;
56299;SDS011;42209;6.376;-10.782;2023-03-01T06:35:46;8.75;;;5.25;;
56299;SDS011;42209;6.376;-10.782;2023-03-01T06:38:15;7.38;;;4.25;;
56299;SDS011;42209;6.376;-10.782;2023-03-01T06:40:44;7.05;;;4.72;;
56299;SDS011;42209;6.376;-10.782;2023-03-01T06:43:18;8.95;;;4.28;;
56299;SDS011;42209;6.376;-10.782;2023-03-01T06:48:15;9.20;;;4.40;;
56299;SDS011;42209;6.376;-10.782;2023-03-01T06:50:43;7.30;;;4.10;;
56299;SDS011;42209;6.376;-10.782;2023-03-01T06:55:40;9.25;;;4.35;;
56299;SDS011;42209;6.376;-10.782;2023-03-01T06:58:09;9.63;;;4.35;;
56299;SDS011;42209;6.376;-10.782;2023-03-01T07:00:37;8.48;;;4.85;;
56299;SDS011;42209;6.376;-10.782;2023-03-01T07:05:34;6.50;;;3.90;;
56299;SDS011;42209;6.376;-10.782;2023-03-01T07:10:30;9.45;;;4.97;;
56299;SDS011;42209;6.376;-10.782;2023-03-01T07:15:27;5.82;;;4.10;;
56299;SDS011;42209;6.376;-10.782;2023-03-01T07:17:56;8.55;;;4.38;;
56299;SDS011;42209;6.376;-10.782;2023-03-01T07:20:24;8.27;;;4.07;;
56299;SDS011;42209;6.376;-10.782;2023-03-01T07:22:53;8.07;;;4.35;;
56299;SDS011;42209;6.376;-10.782;2023-03-01T07:25:22;9.15;;;4.88;;
56299;SDS011;42209;6.376;-10.782;2023-03-01T07:27:51;6.25;;;4.25;;
56299;SDS011;42209;6.376;-10.782;2023-03-01T07:30:20;6.65;;;4.05;;
56299;SDS011;42209;6.376;-10.782;2023-03-01T07:32:49;8.05;;;4.20;;
56299;SDS011;42209;6.376;-10.782;2023-03-01T07:35:20;6.85;;;4.30;;
56299;SDS011;42209;6.376;-10.782;2023-03-01T07:37:50;9.55;;;4.70;;
56299;SDS011;42209;6.376;-10.782;2023-03-01T07:42:47;7.90;;;4.40;;
56299;SDS011;42209;6.376;-10.782;2023-03-01T07:45:15;5.95;;;4.22;;
56299;SDS011;42209;6.376;-10.782;2023-03-01T07:47:43;7.70;;;3.85;;
56299;SDS011;42209;6.376;-10.782;2023-03-01T07:52:40;7.82;;;4.15;;
56299;SDS011;42209;6.376;-10.782;2023-03-01T07:57:36;7.75;;;4.78;;
56299;SDS011;42209;6.376;-10.782;2023-03-01T08:00:05;9.65;;;4.65;;
56299;SDS011;42209;6.376;-10.782;2023-03-01T08:02:37;9.70;;;4.15;;
56299;SDS011;42209;6.376;-10.782;2023-03-01T08:05:06;8.05;;;4.43;;
56299;SDS011;42209;6.376;-10.782;2023-03-01T08:07:36;7.43;;;4.07;;
56299;SDS011;42209;6.376;-10.782;2023-03-01T08:10:04;6.65;;;3.47;;
56299;SDS011;42209;6.376;-10.782;2023-03-01T08:12:34;6.90;;;3.60;;
56299;SDS011;42209;6.376;-10.782;2023-03-01T08:15:03;7.15;;;3.58;;
56299;SDS011;42209;6.376;-10.782;2023-03-01T08:17:32;9.18;;;3.97;;
56299;SDS011;42209;6.376;-10.782;2023-03-01T08:20:01;8.25;;;4.65;;
56299;SDS011;42209;6.376;-10.782;2023-03-01T08:22:30;6.13;;;3.30;;
56299;SDS011;42209;6.376;-10.782;2023-03-01T08:24:58;7.95;;;3.85;;
56299;SDS011;42209;6.376;-10.782;2023-03-01T08:27:26;7.68;;;4.13;;
56299;SDS011;42209;6.376;-10.782;2023-03-01T08:32:23;8.65;;;4.15;;
56299;SDS011;42209;6.376;-10.782;2023-03-01T08:37:19;8.05;;;4.63;;
56299;SDS011;42209;6.376;-10.782;2023-03-01T08:39:47;8.43;;;3.55;;
56299;SDS011;42209;6.376;-10.782;2023-03-01T08:44:44;8.30;;;4.15;;
56299;SDS011;42209;6.376;-10.782;2023-03-01T08:47:13;9.48;;;4.63;;
56299;SDS011;42209;6.376;-10.782;2023-03-01T08:49:42;9.10;;;4.45;;
56299;SDS011;42209;6.376;-10.782;2023-03-01T08:52:10;10.63;;;4.18;;
56299;SDS011;42209;6.376;-10.782;2023-03-01T08:54:38;12.93;;;5.55;;
56299;SDS011;42209;6.376;-10.782;2023-03-01T08:59:34;7.40;;;3.97;;
56299;SDS011;42209;6.376;-10.782;2023-03-01T09:02:08;6.93;;;4.63;;
56299;SDS011;42209;6.376;-10.782;2023-03-01T09:04:42;12.48;;;4.57;;
56299;SDS011;42209;6.376;-10.782;2023-03-01T09:07:11;9.00;;;4.00;;
56299;SDS011;42209;6.376;-10.782;2023-03-01T09:09:39;6.18;;;3.80;;
56299;SDS011;42209;6.376;-10.782;2023-03-01T09:14:36;8.52;;;3.70;;
56299;SDS011;42209;6.376;-10.782;2023-03-01T09:17:04;8.05;;;4.10;;
56299;SDS011;42209;6.376;-10.782;2023-03-01T09:19:32;6.32;;;3.85;;
56299;SDS011;42209;6.376;-10.782;2023-03-01T09:22:02;6.95;;;3.88;;
56299;SDS011;42209;6.376;-10.782;2023-03-01T09:24:31;7.32;;;3.42;;
56299;SDS011;42209;6.376;-10.782;2023-03-01T09:27:00;8.38;;;3.35;;
56299;SDS011;42209;6.376;-10.782;2023-03-01T09:31:56;7.18;;;3.70;;
56299;SDS011;42209;6.376;-10.782;2023-03-01T09:36:53;6.50;;;3.05;;
56299;SDS011;42209;6.376;-10.782;2023-03-01T09:41:52;4.47;;;2.95;;
56299;SDS011;42209;6.376;-10.782;2023-03-01T09:52:43;5.82;;;3.10;;
56299;SDS011;42209;6.376;-10.782;2023-03-01T09:55:20;6.90;;;3.95;;
56299;SDS011;42209;6.376;-10.782;2023-03-01T10:01:53;7.43;;;3.20;;
56299;SDS011;42209;6.376;-10.782;2023-03-01T10:09:54;7.88;;;4.10;;
56299;SDS011;42209;6.376;-10.782;2023-03-01T10:12:25;6.95;;;3.55;;
56299;SDS011;42209;6.376;-10.782;2023-03-01T10:15:05;6.30;;;3.70;;
56299;SDS011;42209;6.376;-10.782;2023-03-01T10:22:54;7.05;;;3.67;;
56299;SDS011;42209;6.376;-10.782;2023-03-01T10:25:31;6.32;;;3.40;;
56299;SDS011;42209;6.376;-10.782;2023-03-01T10:28:17;6.18;;;3.70;;
56299;SDS011;42209;6.376;-10.782;2023-03-01T10:30:52;6.90;;;2.97;;
56299;SDS011;42209;6.376;-10.782;2023-03-01T10:33:29;7.05;;;2.75;;
56299;SDS011;42209;6.376;-10.782;2023-03-01T10:38:27;6.20;;;2.90;;
56299;SDS011;42209;6.376;-10.782;2023-03-01T10:41:05;6.57;;;4.05;;
56299;SDS011;42209;6.376;-10.782;2023-03-01T10:43:47;6.28;;;3.35;;
56299;SDS011;42209;6.376;-10.782;2023-03-01T10:46:33;5.82;;;2.85;;
56299;SDS011;42209;6.376;-10.782;2023-03-01T10:51:46;5.88;;;2.92;;
56299;SDS011;42209;6.376;-10.782;2023-03-01T10:57:04;7.05;;;3.13;;
56299;SDS011;42209;6.376;-10.782;2023-03-01T10:59:34;7.53;;;3.33;;
56299;SDS011;42209;6.376;-10.782;2023-03-01T11:02:24;6.82;;;3.25;;
56299;SDS011;42209;6.376;-10.782;2023-03-01T11:05:07;5.18;;;2.47;;
56299;SDS011;42209;6.376;-10.782;2023-03-01T11:07:51;5.50;;;2.53;;
56299;SDS011;42209;6.376;-10.782;2023-03-01T11:10:35;5.53;;;2.45;;
56299;SDS011;42209;6.376;-10.782;2023-03-01T11:13:19;6.95;;;2.78;;
56299;SDS011;42209;6.376;-10.782;2023-03-01T11:16:05;8.95;;;3.22;;
56299;SDS011;42209;6.376;-10.782;2023-03-01T11:18:37;7.28;;;2.35;;
56299;SDS011;42209;6.376;-10.782;2023-03-01T11:21:17;5.53;;;2.35;;
56299;SDS011;42209;6.376;-10.782;2023-03-01T11:23:45;5.97;;;2.60;;
56299;SDS011;42209;6.376;-10.782;2023-03-01T11:26:14;5.45;;;2.60;;
56299;SDS011;42209;6.376;-10.782;2023-03-01T11:28:45;5.15;;;2.00;;
56299;SDS011;42209;6.376;-10.782;2023-03-01T11:31:22;5.53;;;2.50;;
56299;SDS011;42209;6.376;-10.782;2023-03-01T11:39:18;4.13;;;2.38;;
56299;SDS011;42209;6.376;-10.782;2023-03-01T11:42:15;5.55;;;2.67;;
56299;SDS011;42209;6.376;-10.782;2023-03-01T11:44:58;4.80;;;2.50;;
56299;SDS011;42209;6.376;-10.782;2023-03-01T11:47:45;6.47;;;3.15;;
56299;SDS011;42209;6.376;-10.782;2023-03-01T11:50:39;8.73;;;2.83;;
56299;SDS011;42209;6.376;-10.782;2023-03-01T11:56:03;7.50;;;3.33;;
56299;SDS011;42209;6.376;-10.782;2023-03-01T11:58:59;7.68;;;2.85;;
56299;SDS011;42209;6.376;-10.782;2023-03-01T12:01:51;5.15;;;2.20;;
56299;SDS011;42209;6.376;-10.782;2023-03-01T12:07:37;6.82;;;2.70;;
56299;SDS011;42209;6.376;-10.782;2023-03-01T12:10:39;6.05;;;3.22;;
56299;SDS011;42209;6.376;-10.782;2023-03-01T12:16:38;4.90;;;2.20;;
56299;SDS011;42209;6.376;-10.782;2023-03-01T12:33:17;7.03;;;2.65;;
56299;SDS011;42209;6.376;-10.782;2023-03-01T12:36:06;5.70;;;2.22;;
56299;SDS011;42209;6.376;-10.782;2023-03-01T12:39:02;5.05;;;2.38;;
56299;SDS011;42209;6.376;-10.782;2023-03-01T12:47:27;6.28;;;2.40;;
56299;SDS011;42209;6.376;-10.782;2023-03-01T12:52:33;7.15;;;1.90;;
56299;SDS011;42209;6.376;-10.782;2023-03-01T12:55:06;6.67;;;2.27;;
56299;SDS011;42209;6.376;-10.782;2023-03-01T12:58:28;5.30;;;2.50;;
56299;SDS011;42209;6.376;-10.782;2023-03-01T13:11:56;5.47;;;2.45;;
56299;SDS011;42209;6.376;-10.782;2023-03-01T13:16:53;5.53;;;2.30;;
56299;SDS011;42209;6.376;-10.782;2023-03-01T13:19:23;6.38;;;2.65;;
56299;SDS011;42209;6.376;-10.782;2023-03-01T13:21:53;5.80;;;3.13;;
56299;SDS011;42209;6.376;-10.782;2023-03-01T13:24:41;5.78;;;2.75;;
56299;SDS011;42209;6.376;-10.782;2023-03-01T13:27:11;5.93;;;2.40;;
56299;SDS011;42209;6.376;-10.782;2023-03-01T13:29:55;5.10;;;2.25;;
56299;SDS011;42209;6.376;-10.782;2023-03-01T13:32:25;4.55;;;1.80;;
56299;SDS011;42209;6.376;-10.782;2023-03-01T13:37:47;5.50;;;2.42;;
56299;SDS011;42209;6.376;-10.782;2023-03-01T13:42:44;10.70;;;2.17;;
56299;SDS011;42209;6.376;-10.782;2023-03-01T13:45:36;6.78;;;2.28;;
56299;SDS011;42209;6.376;-10.782;2023-03-01T13:48:09;7.10;;;2.22;;
56299;SDS011;42209;6.376;-10.782;2023-03-01T13:50:54;4.93;;;1.55;;
56299;SDS011;42209;6.376;-10.782;2023-03-01T13:53:45;5.95;;;2.47;;
56299;SDS011;42209;6.376;-10.782;2023-03-01T13:56:20;5.53;;;1.90;;
56299;SDS011;42209;6.376;-10.782;2023-03-01T13:58:53;5.88;;;2.00;;
56299;SDS011;42209;6.376;-10.782;2023-03-01T14:01:28;8.23;;;3.40;;
56299;SDS011;42209;6.376;-10.782;2023-03-01T14:03:59;6.75;;;3.00;;
56299;SDS011;42209;6.376;-10.782;2023-03-01T14:06:29;6.45;;;2.35;;
56299;SDS011;42209;6.376;-10.782;2023-03-01T14:14:44;5.70;;;2.40;;
56299;SDS011;42209;6.376;-10.782;2023-03-01T14:20:22;5.25;;;2.63;;
56299;SDS011;42209;6.376;-10.782;2023-03-01T14:23:01;7.00;;;2.25;;
56299;SDS011;42209;6.376;-10.782;2023-03-01T14:25:37;5.65;;;2.40;;
56299;SDS011;42209;6.376;-10.782;2023-03-01T14:30:53;4.22;;;1.88;;
56299;SDS011;42209;6.376;-10.782;2023-03-01T14:33:25;5.72;;;2.00;;
56299;SDS011;42209;6.376;-10.782;2023-03-01T14:35:57;6.32;;;1.90;;
56299;SDS011;42209;6.376;-10.782;2023-03-01T14:38:46;4.13;;;1.85;;
56299;SDS011;42209;6.376;-10.782;2023-03-01T14:41:15;6.97;;;1.60;;
56299;SDS011;42209;6.376;-10.782;2023-03-01T14:43:49;8.00;;;2.88;;
56299;SDS011;42209;6.376;-10.782;2023-03-01T14:46:40;3.53;;;1.42;;
56299;SDS011;42209;6.376;-10.782;2023-03-01T14:49:15;5.90;;;2.22;;
56299;SDS011;42209;6.376;-10.782;2023-03-01T14:52:03;5.93;;;2.60;;
56299;SDS011;42209;6.376;-10.782;2023-03-01T14:54:41;6.47;;;2.13;;
56299;SDS011;42209;6.376;-10.782;2023-03-01T14:57:15;4.63;;;2.28;;
56299;SDS011;42209;6.376;-10.782;2023-03-01T14:59:46;7.25;;;2.60;;
56299;SDS011;42209;6.376;-10.782;2023-03-01T15:02:17;3.17;;;1.65;;
56299;SDS011;42209;6.376;-10.782;2023-03-01T15:04:49;6.60;;;1.73;;
56299;SDS011;42209;6.376;-10.782;2023-03-01T15:07:19;6.25;;;2.13;;
56299;SDS011;42209;6.376;-10.782;2023-03-01T15:10:00;3.95;;;1.95;;
56299;SDS011;42209;6.376;-10.782;2023-03-01T15:17:57;5.93;;;2.22;;
56299;SDS011;42209;6.376;-10.782;2023-03-01T15:20:28;7.13;;;2.22;;
56299;SDS011;42209;6.376;-10.782;2023-03-01T15:22:57;7.82;;;2.60;;
56299;SDS011;42209;6.376;-10.782;2023-03-01T15:25:27;3.97;;;1.80;;
56299;SDS011;42209;6.376;-10.782;2023-03-01T15:27:59;5.32;;;1.92;;
56299;SDS011;42209;6.376;-10.782;2023-03-01T15:30:33;6.75;;;2.72;;
56299;SDS011;42209;6.376;-10.782;2023-03-01T15:33:16;5.55;;;1.52;;
56299;SDS011;42209;6.376;-10.782;2023-03-01T15:35:50;6.25;;;1.90;;
56299;SDS011;42209;6.376;-10.782;2023-03-01T15:41:25;4.65;;;1.73;;
56299;SDS011;42209;6.376;-10.782;2023-03-01T15:43:55;7.63;;;2.17;;
56299;SDS011;42209;6.376;-10.782;2023-03-01T15:46:28;5.53;;;1.73;;
56299;SDS011;42209;6.376;-10.782;2023-03-01T15:49:03;4.78;;;2.00;;
56299;SDS011;42209;6.376;-10.782;2023-03-01T15:51:46;6.50;;;2.33;;
56299;SDS011;42209;6.376;-10.782;2023-03-01T15:54:18;5.40;;;2.05;;
56299;SDS011;42209;6.376;-10.782;2023-03-01T15:56:49;6.45;;;2.13;;
56299;SDS011;42209;6.376;-10.782;2023-03-01T15:59:18;6.65;;;2.58;;
56299;SDS011;42209;6.376;-10.782;2023-03-01T16:01:46;8.10;;;1.67;;
56299;SDS011;42209;6.376;-10.782;2023-03-01T16:04:16;5.43;;;2.40;;
56299;SDS011;42209;6.376;-10.782;2023-03-01T16:06:46;8.30;;;2.28;;
56299;SDS011;42209;6.376;-10.782;2023-03-01T16:09:14;6.78;;;2.88;;
56299;SDS011;42209;6.376;-10.782;2023-03-01T16:11:43;6.45;;;2.67;;
56299;SDS011;42209;6.376;-10.782;2023-03-01T16:14:11;5.13;;;1.55;;
56299;SDS011;42209;6.376;-10.782;2023-03-01T16:16:39;6.80;;;1.92;;
56299;SDS011;42209;6.376;-10.782;2023-03-01T16:19:07;5.15;;;2.10;;
56299;SDS011;42209;6.376;-10.782;2023-03-01T16:21:36;5.20;;;1.85;;
56299;SDS011;42209;6.376;-10.782;2023-03-01T16:24:05;7.00;;;2.42;;
56299;SDS011;42209;6.376;-10.782;2023-03-01T16:26:34;6.70;;;2.20;;
56299;SDS011;42209;6.376;-10.782;2023-03-01T16:29:04;5.68;;;2.25;;
56299;SDS011;42209;6.376;-10.782;2023-03-01T16:31:32;5.35;;;1.80;;
56299;SDS011;42209;6.376;-10.782;2023-03-01T16:34:01;4.97;;;1.88;;
56299;SDS011;42209;6.376;-10.782;2023-03-01T16:38:57;6.88;;;2.05;;
56299;SDS011;42209;6.376;-10.782;2023-03-01T16:41:27;7.40;;;2.05;;
56299;SDS011;42209;6.376;-10.782;2023-03-01T16:43:56;7.93;;;1.95;;
56299;SDS011;42209;6.376;-10.782;2023-03-01T16:46:25;5.93;;;2.50;;
56299;SDS011;42209;6.376;-10.782;2023-03-01T16:48:54;6.28;;;1.88;;
56299;SDS011;42209;6.376;-10.782;2023-03-01T16:51:23;9.30;;;2.50;;
56299;SDS011;42209;6.376;-10.782;2023-03-01T16:53:55;5.97;;;1.70;;
56299;SDS011;42209;6.376;-10.782;2023-03-01T16:56:23;6.10;;;2.17;;
56299;SDS011;42209;6.376;-10.782;2023-03-01T16:58:51;5.85;;;2.17;;
56299;SDS011;42209;6.376;-10.782;2023-03-01T17:01:20;4.57;;;1.65;;
56299;SDS011;42209;6.376;-10.782;2023-03-01T17:03:49;5.80;;;2.13;;
56299;SDS011;42209;6.376;-10.782;2023-03-01T17:06:18;4.28;;;1.60;;
56299;SDS011;42209;6.376;-10.782;2023-03-01T17:08:48;6.43;;;1.77;;
56299;SDS011;42209;6.376;-10.782;2023-03-01T17:11:17;6.35;;;2.50;;
56299;SDS011;42209;6.376;-10.782;2023-03-01T17:13:46;5.40;;;1.42;;
56299;SDS011;42209;6.376;-10.782;2023-03-01T17:16:20;5.93;;;1.88;;
56299;SDS011;42209;6.376;-10.782;2023-03-01T17:18:49;5.03;;;1.92;;
56299;SDS011;42209;6.376;-10.782;2023-03-01T17:21:17;5.30;;;1.90;;
56299;SDS011;42209;6.376;-10.782;2023-03-01T17:23:46;6.38;;;1.77;;
56299;SDS011;42209;6.376;-10.782;2023-03-01T17:26:15;6.10;;;1.80;;
56299;SDS011;42209;6.376;-10.782;2023-03-01T17:28:44;5.30;;;1.73;;
56299;SDS011;42209;6.376;-10.782;2023-03-01T17:31:13;5.72;;;1.77;;
56299;SDS011;42209;6.376;-10.782;2023-03-01T17:33:41;5.85;;;1.90;;
56299;SDS011;42209;6.376;-10.782;2023-03-01T17:49:31;5.05;;;2.13;;
56299;SDS011;42209;6.376;-10.782;2023-03-01T17:52:00;6.85;;;1.98;;
56299;SDS011;42209;6.376;-10.782;2023-03-01T17:54:28;4.60;;;1.20;;
56299;SDS011;42209;6.376;-10.782;2023-03-01T17:56:56;5.07;;;1.27;;
56299;SDS011;42209;6.376;-10.782;2023-03-01T17:59:25;5.28;;;1.60;;
56299;SDS011;42209;6.376;-10.782;2023-03-01T18:04:21;5.00;;;1.80;;
56299;SDS011;42209;6.376;-10.782;2023-03-01T18:06:52;4.05;;;1.60;;
56299;SDS011;42209;6.376;-10.782;2023-03-01T18:14:16;4.88;;;1.23;;
56299;SDS011;42209;6.376;-10.782;2023-03-01T18:16:44;5.72;;;1.63;;
56299;SDS011;42209;6.376;-10.782;2023-03-01T18:19:13;4.78;;;2.28;;
56299;SDS011;42209;6.376;-10.782;2023-03-01T18:21:41;6.32;;;1.67;;
56299;SDS011;42209;6.376;-10.782;2023-03-01T18:26:37;3.85;;;1.35;;
56299;SDS011;42209;6.376;-10.782;2023-03-01T18:29:06;4.15;;;1.60;;
56299;SDS011;42209;6.376;-10.782;2023-03-01T18:34:02;5.75;;;1.48;;
56299;SDS011;42209;6.376;-10.782;2023-03-01T18:36:31;3.58;;;1.23;;
56299;SDS011;42209;6.376;-10.782;2023-03-01T18:39:02;4.03;;;1.15;;
56299;SDS011;42209;6.376;-10.782;2023-03-01T18:41:32;3.67;;;1.58;;
56299;SDS011;42209;6.376;-10.782;2023-03-01T18:44:02;3.80;;;1.70;;
56299;SDS011;42209;6.376;-10.782;2023-03-01T18:46:34;6.07;;;1.00;;
56299;SDS011;42209;6.376;-10.782;2023-03-01T18:49:04;5.28;;;1.92;;
56299;SDS011;42209;6.376;-10.782;2023-03-01T18:51:33;3.65;;;1.00;;
56299;SDS011;42209;6.376;-10.782;2023-03-01T18:54:02;5.05;;;1.73;;
56299;SDS011;42209;6.376;-10.782;2023-03-01T18:56:31;3.53;;;1.15;;
56299;SDS011;42209;6.376;-10.782;2023-03-01T18:59:00;5.38;;;0.98;;
56299;SDS011;42209;6.376;-10.782;2023-03-01T19:04:02;6.82;;;1.88;;
56299;SDS011;42209;6.376;-10.782;2023-03-01T19:06:31;5.45;;;1.35;;
56299;SDS011;42209;6.376;-10.782;2023-03-01T19:09:00;5.10;;;1.27;;
56299;SDS011;42209;6.376;-10.782;2023-03-01T19:11:30;3.53;;;1.65;;
56299;SDS011;42209;6.376;-10.782;2023-03-01T19:14:00;3.90;;;1.35;;
56299;SDS011;42209;6.376;-10.782;2023-03-01T19:16:29;4.15;;;1.45;;
56299;SDS011;42209;6.376;-10.782;2023-03-01T19:19:00;4.53;;;1.33;;
56299;SDS011;42209;6.376;-10.782;2023-03-01T19:21:31;5.35;;;1.27;;
56299;SDS011;42209;6.376;-10.782;2023-03-01T19:24:00;4.68;;;1.40;;
56299;SDS011;42209;6.376;-10.782;2023-03-01T19:26:29;5.75;;;1.77;;
56299;SDS011;42209;6.376;-10.782;2023-03-01T19:28:58;8.35;;;1.70;;
56299;SDS011;42209;6.376;-10.782;2023-03-01T19:31:27;6.93;;;2.40;;
56299;SDS011;42209;6.376;-10.782;2023-03-01T19:33:57;6.95;;;2.08;;
56299;SDS011;42209;6.376;-10.782;2023-03-01T19:36:37;6.90;;;2.88;;